createdAt,value
2019-05-09T00:00:14.149Z,9.48
2019-05-09T00:01:14.180Z,9.37
2019-05-09T00:02:13.765Z,9.42
2019-05-09T00:03:13.839Z,9.29
2019-05-09T00:04:13.927Z,9.22
2019-05-09T00:05:13.805Z,9.26
2019-05-09T00:06:13.665Z,9.24
2019-05-09T00:07:14.025Z,9.27
2019-05-09T00:08:13.965Z,9.27
2019-05-09T00:09:13.885Z,9.26
2019-05-09T00:10:14.204Z,9.24
2019-05-09T00:11:14.552Z,9.24
2019-05-09T00:12:14.167Z,9.19
2019-05-09T00:13:13.631Z,9.22
2019-05-09T00:14:13.550Z,9.24
2019-05-09T00:15:13.632Z,9.18
2019-05-09T00:16:14.566Z,9.23
2019-05-09T00:17:14.057Z,9.16
2019-05-09T00:18:14.315Z,9.11
2019-05-09T00:19:13.573Z,9.15
2019-05-09T00:20:13.655Z,9.08
2019-05-09T00:21:13.431Z,9.06
2019-05-09T00:22:13.702Z,8.98
2019-05-09T00:23:13.546Z,8.89
2019-05-09T00:24:13.884Z,8.93
2019-05-09T00:25:13.231Z,8.92
2019-05-09T00:26:13.444Z,8.90
2019-05-09T00:27:14.130Z,8.88
2019-05-09T00:28:13.435Z,8.92
2019-05-09T00:29:14.102Z,8.86
2019-05-09T00:30:13.947Z,8.90
2019-05-09T00:31:13.628Z,8.77
2019-05-09T00:32:13.680Z,8.86
2019-05-09T00:33:14.271Z,8.86
2019-05-09T00:34:14.368Z,8.80
2019-05-09T00:35:14.171Z,8.89
2019-05-09T00:36:14.049Z,8.89
2019-05-09T00:37:13.538Z,8.88
2019-05-09T00:38:13.278Z,8.81
2019-05-09T00:39:13.383Z,8.80
2019-05-09T00:40:13.199Z,8.88
2019-05-09T00:41:13.986Z,8.77
2019-05-09T00:42:13.674Z,8.72
2019-05-09T00:43:13.191Z,8.80
2019-05-09T00:44:13.862Z,8.74
2019-05-09T00:45:13.300Z,8.77
2019-05-09T00:46:14.156Z,8.78
2019-05-09T00:47:13.548Z,8.89
2019-05-09T00:48:14.048Z,8.85
2019-05-09T00:49:14.049Z,8.81
2019-05-09T00:50:13.215Z,8.83
2019-05-09T00:51:14.042Z,8.74
2019-05-09T00:52:14.142Z,8.74
2019-05-09T00:53:13.740Z,8.75
2019-05-09T00:54:13.490Z,8.70
2019-05-09T00:55:13.265Z,8.71
2019-05-09T00:56:13.404Z,8.67
2019-05-09T00:57:13.759Z,8.65
2019-05-09T00:58:13.583Z,8.71
2019-05-09T00:59:13.466Z,8.71
2019-05-09T01:00:14.541Z,8.67
2019-05-09T01:01:13.286Z,8.75
2019-05-09T01:02:13.178Z,8.62
2019-05-09T01:03:14.187Z,8.71
2019-05-09T01:04:13.666Z,8.68
2019-05-09T01:05:13.233Z,8.67
2019-05-09T01:06:13.364Z,8.63
2019-05-09T01:07:13.915Z,8.67
2019-05-09T01:08:13.704Z,8.68
2019-05-09T01:09:13.720Z,8.72
2019-05-09T01:10:13.400Z,8.75
2019-05-09T01:11:15.295Z,8.65
2019-05-09T01:12:13.860Z,8.71
2019-05-09T01:13:14.215Z,8.67
2019-05-09T01:14:14.157Z,8.62
2019-05-09T01:15:13.365Z,8.65
2019-05-09T01:16:13.383Z,8.71
2019-05-09T01:17:13.624Z,8.77
2019-05-09T01:18:13.238Z,8.85
2019-05-09T01:19:14.172Z,8.86
2019-05-09T01:20:12.094Z,8.88
2019-05-09T01:21:13.389Z,8.78
2019-05-09T01:22:13.172Z,8.86
2019-05-09T01:23:14.145Z,8.80
2019-05-09T01:24:13.880Z,8.81
2019-05-09T01:25:13.444Z,8.86
2019-05-09T01:26:13.223Z,8.78
2019-05-09T01:27:14.093Z,8.74
2019-05-09T01:28:13.918Z,8.77
2019-05-09T01:29:13.840Z,8.71
2019-05-09T01:30:13.552Z,8.75
2019-05-09T01:31:13.296Z,8.72
2019-05-09T01:32:14.428Z,8.72
2019-05-09T01:33:13.572Z,8.65
2019-05-09T01:34:13.359Z,8.65
2019-05-09T01:35:13.199Z,8.62
2019-05-09T01:36:14.236Z,8.59
2019-05-09T01:37:13.903Z,8.65
2019-05-09T01:38:13.985Z,8.78
2019-05-09T01:39:13.776Z,8.67
2019-05-09T01:40:13.261Z,8.75
2019-05-09T01:41:24.607Z,8.68
2019-05-09T01:42:13.728Z,8.74
2019-05-09T01:43:13.818Z,8.67
2019-05-09T01:44:13.421Z,8.59
2019-05-09T01:45:14.003Z,8.72
2019-05-09T01:46:14.302Z,8.67
2019-05-09T01:47:13.708Z,8.68
2019-05-09T01:48:13.744Z,8.67
2019-05-09T01:49:13.766Z,8.67
2019-05-09T01:50:13.886Z,8.70
2019-05-09T01:51:13.746Z,8.70
2019-05-09T01:52:13.583Z,8.71
2019-05-09T01:53:13.389Z,8.81
2019-05-09T01:54:13.275Z,8.74
2019-05-09T01:55:14.034Z,8.78
2019-05-09T01:56:13.824Z,8.71
2019-05-09T01:57:13.691Z,8.78
2019-05-09T01:58:13.755Z,8.83
2019-05-09T01:59:13.705Z,8.75
2019-05-09T02:00:13.249Z,8.77
2019-05-09T02:01:13.438Z,8.72
2019-05-09T02:02:14.018Z,8.86
2019-05-09T02:03:13.878Z,8.75
2019-05-09T02:04:13.507Z,8.85
2019-05-09T02:05:13.495Z,8.85
2019-05-09T02:06:13.630Z,8.93
2019-05-09T02:07:13.282Z,8.90
2019-05-09T02:08:12.025Z,8.86
2019-05-09T02:09:13.869Z,8.86
2019-05-09T02:10:13.765Z,8.89
2019-05-09T02:11:13.213Z,8.86
2019-05-09T02:12:11.515Z,8.89
2019-05-09T02:13:13.559Z,8.85
2019-05-09T02:14:13.514Z,8.83
2019-05-09T02:15:13.048Z,8.86
2019-05-09T02:16:11.480Z,8.80
2019-05-09T02:17:13.836Z,8.80
2019-05-09T02:18:13.611Z,8.80
2019-05-09T02:19:13.427Z,8.77
2019-05-09T02:20:13.571Z,8.86
2019-05-09T02:21:14.312Z,8.89
2019-05-09T02:22:13.067Z,8.90
2019-05-09T02:23:11.402Z,8.88
2019-05-09T02:24:13.888Z,8.95
2019-05-09T02:25:13.052Z,8.90
2019-05-09T02:26:13.464Z,8.93
2019-05-09T02:27:13.232Z,8.89
2019-05-09T02:28:11.397Z,8.89
2019-05-09T02:29:13.655Z,8.89
2019-05-09T02:30:14.741Z,9.03
2019-05-09T02:31:11.333Z,8.99
2019-05-09T02:32:14.162Z,9.01
2019-05-09T02:33:14.425Z,9.04
2019-05-09T02:34:14.536Z,9.11
2019-05-09T02:35:11.262Z,9.15
2019-05-09T02:36:11.280Z,9.15
2019-05-09T02:37:11.259Z,9.12
2019-05-09T02:38:11.233Z,9.03
2019-05-09T02:39:11.260Z,9.16
2019-05-09T02:40:11.250Z,9.22
2019-05-09T02:41:11.241Z,9.19
2019-05-09T02:42:14.238Z,9.16
2019-05-09T02:43:11.187Z,9.18
2019-05-09T02:44:11.168Z,9.19
2019-05-09T02:45:11.158Z,9.22
2019-05-09T02:46:11.154Z,9.24
2019-05-09T02:47:11.179Z,9.27
2019-05-09T02:48:11.123Z,9.23
2019-05-09T02:49:11.121Z,9.22
2019-05-09T02:50:11.098Z,9.26
2019-05-09T02:51:11.102Z,9.26
2019-05-09T02:52:11.116Z,9.26
2019-05-09T02:53:11.063Z,9.29
2019-05-09T02:54:11.103Z,9.30
2019-05-09T02:55:11.043Z,9.16
2019-05-09T02:56:11.084Z,9.29
2019-05-09T02:57:11.021Z,9.27
2019-05-09T02:58:11.009Z,9.32
2019-05-09T02:59:11.003Z,9.30
2019-05-09T03:00:11.034Z,9.32
2019-05-09T03:01:10.978Z,9.27
2019-05-09T03:02:10.968Z,9.27
2019-05-09T03:03:10.958Z,9.29
2019-05-09T03:04:11.025Z,9.30
2019-05-09T03:05:10.979Z,9.34
2019-05-09T03:06:10.925Z,9.40
2019-05-09T03:07:10.956Z,9.44
2019-05-09T03:08:10.905Z,9.27
2019-05-09T03:09:10.884Z,9.32
2019-05-09T03:10:10.892Z,9.27
2019-05-09T03:11:10.859Z,9.37
2019-05-09T03:12:26.006Z,9.32
2019-05-09T03:13:11.834Z,9.34
2019-05-09T03:14:10.833Z,9.34
2019-05-09T03:15:10.822Z,9.41
2019-05-09T03:16:10.815Z,9.40
2019-05-09T03:17:10.822Z,9.34
2019-05-09T03:18:10.848Z,9.29
2019-05-09T03:19:10.774Z,9.27
2019-05-09T03:20:10.768Z,9.26
2019-05-09T03:21:10.756Z,9.33
2019-05-09T03:22:10.743Z,9.29
2019-05-09T03:23:10.728Z,9.26
2019-05-09T03:24:10.785Z,9.23
2019-05-09T03:25:10.709Z,9.16
2019-05-09T03:26:10.691Z,9.22
2019-05-09T03:27:10.698Z,9.18
2019-05-09T03:28:10.736Z,9.08
2019-05-09T03:29:10.660Z,9.04
2019-05-09T03:30:12.259Z,9.14
2019-05-09T03:31:10.661Z,9.09
2019-05-09T03:32:10.630Z,9.08
2019-05-09T03:33:10.757Z,8.98
2019-05-09T03:34:10.702Z,9.03
2019-05-09T03:35:10.593Z,9.04
2019-05-09T03:36:10.586Z,9.03
2019-05-09T03:37:10.579Z,8.95
2019-05-09T03:38:10.566Z,8.96
2019-05-09T03:39:10.573Z,8.96
2019-05-09T03:40:10.594Z,8.98
2019-05-09T03:41:10.526Z,9.01
2019-05-09T03:42:10.514Z,8.95
2019-05-09T03:43:10.508Z,8.93
2019-05-09T03:44:10.495Z,8.93
2019-05-09T03:45:10.497Z,8.86
2019-05-09T03:46:10.514Z,8.88
2019-05-09T03:47:10.463Z,8.85
2019-05-09T03:48:10.451Z,8.86
2019-05-09T03:49:10.479Z,8.80
2019-05-09T03:50:10.446Z,8.77
2019-05-09T03:51:10.461Z,8.86
2019-05-09T03:52:10.418Z,8.80
2019-05-09T03:53:10.403Z,8.80
2019-05-09T03:54:10.388Z,8.72
2019-05-09T03:55:10.371Z,8.83
2019-05-09T03:56:10.403Z,8.89
2019-05-09T03:57:10.398Z,8.78
2019-05-09T03:58:10.338Z,8.71
2019-05-09T03:59:10.331Z,8.72
2019-05-09T04:00:10.327Z,8.75
2019-05-09T04:01:10.948Z,8.67
2019-05-09T04:02:10.472Z,8.67
2019-05-09T04:03:10.332Z,8.65
2019-05-09T04:04:10.318Z,8.68
2019-05-09T04:05:10.304Z,8.62
2019-05-09T04:06:10.253Z,8.72
2019-05-09T04:07:10.254Z,8.60
2019-05-09T04:08:10.227Z,8.65
2019-05-09T04:09:10.216Z,8.62
2019-05-09T04:10:10.222Z,8.72
2019-05-09T04:11:10.235Z,8.62
2019-05-09T04:12:10.197Z,8.62
2019-05-09T04:13:11.111Z,8.60
2019-05-09T04:14:10.162Z,8.67
2019-05-09T04:15:10.190Z,8.67
2019-05-09T04:16:10.147Z,8.75
2019-05-09T04:17:10.175Z,8.63
2019-05-09T04:18:10.129Z,8.77
2019-05-09T04:19:10.106Z,8.78
2019-05-09T04:20:10.111Z,8.72
2019-05-09T04:21:10.083Z,8.80
2019-05-09T04:22:10.120Z,8.77
2019-05-09T04:23:10.067Z,8.77
2019-05-09T04:24:10.052Z,8.70
2019-05-09T04:25:10.041Z,8.72
2019-05-09T04:26:10.106Z,8.68
2019-05-09T04:27:10.065Z,8.78
2019-05-09T04:28:10.008Z,8.78
2019-05-09T04:29:10.046Z,8.75
2019-05-09T04:30:09.988Z,8.80
2019-05-09T04:31:10.014Z,8.70
2019-05-09T04:32:10.023Z,8.72
2019-05-09T04:33:09.995Z,8.80
2019-05-09T04:34:10.049Z,8.83
2019-05-09T04:35:09.942Z,8.86
2019-05-09T04:36:09.928Z,8.74
2019-05-09T04:37:12.095Z,8.89
2019-05-09T04:38:09.902Z,8.85
2019-05-09T04:39:12.821Z,8.86
2019-05-09T04:40:09.914Z,8.93
2019-05-09T04:41:09.865Z,8.89
2019-05-09T04:42:09.861Z,8.95
2019-05-09T04:43:15.566Z,9.04
2019-05-09T04:44:16.859Z,9.15
2019-05-09T04:45:10.819Z,9.08
2019-05-09T04:46:12.854Z,9.18
2019-05-09T04:47:10.815Z,9.23
2019-05-09T04:48:13.143Z,9.26
2019-05-09T04:49:10.786Z,9.29
2019-05-09T04:50:09.785Z,9.42
2019-05-09T04:51:09.757Z,9.37
2019-05-09T04:52:09.793Z,9.45
2019-05-09T04:53:09.735Z,9.55
2019-05-09T04:54:09.720Z,9.59
2019-05-09T04:55:09.731Z,9.65
2019-05-09T04:56:09.709Z,9.70
2019-05-09T04:57:09.734Z,9.69
2019-05-09T04:58:09.676Z,9.73
2019-05-09T04:59:09.680Z,9.72
2019-05-09T05:00:10.123Z,9.73
2019-05-09T05:01:09.688Z,9.72
2019-05-09T05:02:09.653Z,9.69
2019-05-09T05:03:09.621Z,9.72
2019-05-09T05:04:09.620Z,9.70
2019-05-09T05:05:09.650Z,9.69
2019-05-09T05:06:09.606Z,9.70
2019-05-09T05:07:09.578Z,9.78
2019-05-09T05:08:09.601Z,9.72
2019-05-09T05:09:09.567Z,9.87
2019-05-09T05:10:09.619Z,9.78
2019-05-09T05:11:09.553Z,9.80
2019-05-09T05:12:09.523Z,9.84
2019-05-09T05:13:23.218Z,9.93
2019-05-09T05:14:10.524Z,9.85
2019-05-09T05:15:09.536Z,9.85
2019-05-09T05:16:09.489Z,9.83
2019-05-09T05:17:11.373Z,9.99
2019-05-09T05:18:09.471Z,9.90
2019-05-09T05:19:09.657Z,9.88
2019-05-09T05:20:09.434Z,9.96
2019-05-09T05:21:09.478Z,9.98
2019-05-09T05:22:09.414Z,9.90
2019-05-09T05:23:09.406Z,10.01
2019-05-09T05:24:09.558Z,10.02
2019-05-09T05:25:09.480Z,10.08
2019-05-09T05:26:09.524Z,10.09
2019-05-09T05:27:09.381Z,10.09
2019-05-09T05:28:09.454Z,10.17
2019-05-09T05:29:09.363Z,10.14
2019-05-09T05:30:09.337Z,10.14
2019-05-09T05:31:09.344Z,10.12
2019-05-09T05:32:09.360Z,10.17
2019-05-09T05:33:09.294Z,10.20
2019-05-09T05:34:09.376Z,10.20
2019-05-09T05:35:09.287Z,10.28
2019-05-09T05:36:09.256Z,10.34
2019-05-09T05:37:09.264Z,10.35
2019-05-09T05:38:09.240Z,10.28
2019-05-09T05:39:09.284Z,10.38
2019-05-09T05:40:09.230Z,10.46
2019-05-09T05:41:09.198Z,10.48
2019-05-09T05:42:09.257Z,10.43
2019-05-09T05:43:09.219Z,10.55
2019-05-09T05:44:09.183Z,10.58
2019-05-09T05:45:09.162Z,10.58
2019-05-09T05:46:09.183Z,10.73
2019-05-09T05:47:09.174Z,10.75
2019-05-09T05:48:09.276Z,10.86
2019-05-09T05:49:09.118Z,10.90
2019-05-09T05:50:09.102Z,10.94
2019-05-09T05:51:09.155Z,10.97
2019-05-09T05:52:09.121Z,10.97
2019-05-09T05:53:09.203Z,11.08
2019-05-09T05:54:09.239Z,11.01
2019-05-09T05:55:09.040Z,10.98
2019-05-09T05:56:09.094Z,10.97
2019-05-09T05:57:09.031Z,11.03
2019-05-09T05:58:09.010Z,11.01
2019-05-09T05:59:09.072Z,11.11
2019-05-09T06:00:09.113Z,11.11
2019-05-09T06:01:09.008Z,11.11
2019-05-09T06:02:09.075Z,11.16
2019-05-09T06:03:08.966Z,11.15
2019-05-09T06:04:09.112Z,11.18
2019-05-09T06:05:08.984Z,11.30
2019-05-09T06:06:09.046Z,11.38
2019-05-09T06:07:08.960Z,11.46
2019-05-09T06:08:08.903Z,11.67
2019-05-09T06:09:09.434Z,11.59
2019-05-09T06:10:08.907Z,11.73
2019-05-09T06:11:12.096Z,11.77
2019-05-09T06:12:08.976Z,11.80
2019-05-09T06:13:08.918Z,11.85
2019-05-09T06:14:11.785Z,11.91
2019-05-09T06:15:08.861Z,11.97
2019-05-09T06:16:08.875Z,11.95
2019-05-09T06:17:08.791Z,11.97
2019-05-09T06:18:08.857Z,12.08
2019-05-09T06:19:09.051Z,12.04
2019-05-09T06:20:09.146Z,12.04
2019-05-09T06:21:09.056Z,12.07
2019-05-09T06:22:08.800Z,12.03
2019-05-09T06:23:08.791Z,11.97
2019-05-09T06:24:08.732Z,11.97
2019-05-09T06:25:09.958Z,11.91
2019-05-09T06:26:10.340Z,11.89
2019-05-09T06:27:10.325Z,11.87
2019-05-09T06:28:08.673Z,11.84
2019-05-09T06:29:08.736Z,11.76
2019-05-09T06:30:08.876Z,11.80
2019-05-09T06:31:08.641Z,11.74
2019-05-09T06:32:08.629Z,11.76
2019-05-09T06:33:09.129Z,11.74
2019-05-09T06:34:08.636Z,11.71
2019-05-09T06:35:08.602Z,11.73
2019-05-09T06:36:08.696Z,11.73
2019-05-09T06:37:09.238Z,11.77
2019-05-09T06:38:08.558Z,11.76
2019-05-09T06:39:08.582Z,11.80
2019-05-09T06:40:08.556Z,11.69
2019-05-09T06:41:09.643Z,11.62
2019-05-09T06:42:09.328Z,11.69
2019-05-09T06:43:08.524Z,11.70
2019-05-09T06:44:14.344Z,11.77
2019-05-09T06:45:09.563Z,11.95
2019-05-09T06:46:08.457Z,12.07
2019-05-09T06:47:08.523Z,12.18
2019-05-09T06:48:14.761Z,12.46
2019-05-09T06:49:24.763Z,12.76
2019-05-09T06:50:10.337Z,12.80
2019-05-09T06:51:08.535Z,12.63
2019-05-09T06:52:08.857Z,12.47
2019-05-09T06:53:08.585Z,12.35
2019-05-09T06:54:08.379Z,12.23
2019-05-09T06:55:08.834Z,12.21
2019-05-09T06:56:08.356Z,12.22
2019-05-09T06:57:08.349Z,12.07
2019-05-09T06:58:08.964Z,12.11
2019-05-09T06:59:08.339Z,12.22
2019-05-09T07:00:08.489Z,12.18
2019-05-09T07:01:08.288Z,12.21
2019-05-09T07:02:08.501Z,12.35
2019-05-09T07:03:08.400Z,12.58
2019-05-09T07:04:09.268Z,12.59
2019-05-09T07:05:08.444Z,12.72
2019-05-09T07:06:08.528Z,12.69
2019-05-09T07:07:08.276Z,12.72
2019-05-09T07:08:08.259Z,12.76
2019-05-09T07:09:08.500Z,12.99
2019-05-09T07:10:08.202Z,13.11
2019-05-09T07:11:08.181Z,13.17
2019-05-09T07:12:08.161Z,13.20
2019-05-09T07:13:08.420Z,13.13
2019-05-09T07:14:08.436Z,13.14
2019-05-09T07:15:08.996Z,13.16
2019-05-09T07:16:08.919Z,13.06
2019-05-09T07:17:08.644Z,13.05
2019-05-09T07:18:08.314Z,13.01
2019-05-09T07:19:08.178Z,13.13
2019-05-09T07:20:08.590Z,13.21
2019-05-09T07:21:08.746Z,13.20
2019-05-09T07:22:09.113Z,13.21
2019-05-09T07:23:08.999Z,13.14
2019-05-09T07:24:08.792Z,13.09
2019-05-09T07:25:10.998Z,13.14
2019-05-09T07:26:08.404Z,13.30
2019-05-09T07:27:08.014Z,13.46
2019-05-09T07:28:08.769Z,13.46
2019-05-09T07:29:08.049Z,13.47
2019-05-09T07:30:07.969Z,13.40
2019-05-09T07:31:11.415Z,13.40
2019-05-09T07:32:07.960Z,13.39
2019-05-09T07:33:08.609Z,13.46
2019-05-09T07:34:08.594Z,13.45
2019-05-09T07:35:08.913Z,13.54
2019-05-09T07:36:08.523Z,13.60
2019-05-09T07:37:08.469Z,13.75
2019-05-09T07:38:13.431Z,13.78
2019-05-09T07:39:08.860Z,13.76
2019-05-09T07:40:08.572Z,13.85
2019-05-09T07:41:08.811Z,13.94
2019-05-09T07:42:07.871Z,14.13
2019-05-09T07:43:08.004Z,14.26
2019-05-09T07:44:07.872Z,14.33
2019-05-09T07:45:09.590Z,14.40
2019-05-09T07:46:08.847Z,14.38
2019-05-09T07:47:07.809Z,14.46
2019-05-09T07:48:07.834Z,14.48
2019-05-09T07:49:08.591Z,14.66
2019-05-09T07:50:08.689Z,14.83
2019-05-09T07:51:08.113Z,14.83
2019-05-09T07:52:10.278Z,14.90
2019-05-09T07:53:08.845Z,14.97
2019-05-09T07:54:21.075Z,15.07
2019-05-09T07:55:09.107Z,15.04
2019-05-09T07:56:08.140Z,14.99
2019-05-09T07:57:08.492Z,15.04
2019-05-09T07:58:08.364Z,15.03
2019-05-09T07:59:07.855Z,14.85
2019-05-09T08:00:07.892Z,14.97
2019-05-09T08:01:08.635Z,14.90
2019-05-09T08:02:08.738Z,14.86
2019-05-09T08:03:12.046Z,14.86
2019-05-09T08:04:08.591Z,14.92
2019-05-09T08:05:08.490Z,14.96
2019-05-09T08:06:08.751Z,14.93
2019-05-09T08:07:08.375Z,15.08
2019-05-09T08:08:08.143Z,15.14
2019-05-09T08:09:08.318Z,15.11
2019-05-09T08:10:09.045Z,15.12
2019-05-09T08:11:09.002Z,15.26
2019-05-09T08:12:07.833Z,15.26
2019-05-09T08:13:21.177Z,15.29
2019-05-09T08:14:10.862Z,15.41
2019-05-09T08:15:16.114Z,15.36
2019-05-09T08:16:14.092Z,15.40
2019-05-09T08:17:08.739Z,15.35
2019-05-09T08:18:08.427Z,15.33
2019-05-09T08:19:07.725Z,15.47
2019-05-09T08:20:08.128Z,15.44
2019-05-09T08:21:08.445Z,15.54
2019-05-09T08:22:08.147Z,15.52
2019-05-09T08:23:08.632Z,15.59
2019-05-09T08:24:08.221Z,15.52
2019-05-09T08:25:08.290Z,15.69
2019-05-09T08:26:08.716Z,15.80
2019-05-09T08:27:08.498Z,15.77
2019-05-09T08:28:09.078Z,15.77
2019-05-09T08:29:09.463Z,15.77
2019-05-09T08:30:08.042Z,15.77
2019-05-09T08:31:08.383Z,15.66
2019-05-09T08:32:09.171Z,15.69
2019-05-09T08:33:08.492Z,15.63
2019-05-09T08:34:09.236Z,15.63
2019-05-09T08:35:08.526Z,15.56
2019-05-09T08:36:09.122Z,15.33
2019-05-09T08:37:08.274Z,15.35
2019-05-09T08:38:08.505Z,15.23
2019-05-09T08:39:08.303Z,15.30
2019-05-09T08:40:08.054Z,15.40
2019-05-09T08:41:09.056Z,15.22
2019-05-09T08:42:08.586Z,15.23
2019-05-09T08:43:07.637Z,15.15
2019-05-09T08:44:07.972Z,15.23
2019-05-09T08:45:17.415Z,15.17
2019-05-09T08:46:08.239Z,15.08
2019-05-09T08:47:09.019Z,14.86
2019-05-09T08:48:09.613Z,14.90
2019-05-09T08:49:08.177Z,14.86
2019-05-09T08:50:08.009Z,14.86
2019-05-09T08:51:08.858Z,14.71
2019-05-09T08:52:12.744Z,14.64
2019-05-09T08:53:08.434Z,14.58
2019-05-09T08:54:09.285Z,14.45
2019-05-09T08:55:08.857Z,14.30
2019-05-09T08:56:09.825Z,14.27
2019-05-09T08:57:08.874Z,14.16
2019-05-09T08:58:08.154Z,14.26
2019-05-09T08:59:08.306Z,14.34
2019-05-09T09:00:08.174Z,14.23
2019-05-09T09:01:11.046Z,14.22
2019-05-09T09:02:14.928Z,14.36
2019-05-09T09:03:08.224Z,14.36
2019-05-09T09:04:08.848Z,14.53
2019-05-09T09:05:08.677Z,14.59
2019-05-09T09:06:08.250Z,14.59
2019-05-09T09:07:08.423Z,14.56
2019-05-09T09:08:08.329Z,14.53
2019-05-09T09:09:08.082Z,14.53
2019-05-09T09:10:08.516Z,14.52
2019-05-09T09:11:08.596Z,14.63
2019-05-09T09:12:23.141Z,14.59
2019-05-09T09:13:08.863Z,14.66
2019-05-09T09:14:14.660Z,14.74
2019-05-09T09:15:17.868Z,14.79
2019-05-09T09:16:23.079Z,14.83
2019-05-09T09:17:10.028Z,14.74
2019-05-09T09:18:08.867Z,14.67
2019-05-09T09:19:08.923Z,14.73
2019-05-09T09:20:07.747Z,14.73
2019-05-09T09:21:08.061Z,14.77
2019-05-09T09:22:08.830Z,14.79
2019-05-09T09:23:09.369Z,14.85
2019-05-09T09:24:08.759Z,14.79
2019-05-09T09:25:07.706Z,14.66
2019-05-09T09:26:08.061Z,14.74
2019-05-09T09:27:07.668Z,14.78
2019-05-09T09:28:08.736Z,14.79
2019-05-09T09:29:08.484Z,14.83
2019-05-09T09:30:17.873Z,14.97
2019-05-09T09:31:08.345Z,15.10
2019-05-09T09:32:08.358Z,15.14
2019-05-09T09:33:11.345Z,15.40
2019-05-09T09:34:09.121Z,15.40
2019-05-09T09:35:08.790Z,15.43
2019-05-09T09:36:08.790Z,15.58
2019-05-09T09:37:12.263Z,15.54
2019-05-09T09:38:09.070Z,15.48
2019-05-09T09:39:08.004Z,15.54
2019-05-09T09:40:08.695Z,15.52
2019-05-09T09:41:07.765Z,15.65
2019-05-09T09:42:09.090Z,15.66
2019-05-09T09:43:09.287Z,15.83
2019-05-09T09:44:08.781Z,15.81
2019-05-09T09:45:07.809Z,15.60
2019-05-09T09:46:14.008Z,15.62
2019-05-09T09:47:07.536Z,15.68
2019-05-09T09:48:09.042Z,15.69
2019-05-09T09:49:07.943Z,15.73
2019-05-09T09:50:08.601Z,15.62
2019-05-09T09:51:08.017Z,15.58
2019-05-09T09:52:08.555Z,15.33
2019-05-09T09:53:08.687Z,15.26
2019-05-09T09:54:08.785Z,15.32
2019-05-09T09:55:08.764Z,15.41
2019-05-09T09:56:08.471Z,15.51
2019-05-09T09:57:09.671Z,15.45
2019-05-09T09:58:08.260Z,15.50
2019-05-09T09:59:08.161Z,15.51
2019-05-09T10:00:07.577Z,15.78
2019-05-09T10:01:08.703Z,15.78
2019-05-09T10:02:09.997Z,15.78
2019-05-09T10:03:07.963Z,15.68
2019-05-09T10:04:16.772Z,15.81
2019-05-09T10:05:07.750Z,15.88
2019-05-09T10:06:06.569Z,15.93
2019-05-09T10:07:08.679Z,15.99
2019-05-09T10:08:10.252Z,15.88
2019-05-09T10:09:09.327Z,15.76
2019-05-09T10:10:07.887Z,15.81
2019-05-09T10:11:08.112Z,15.98
2019-05-09T10:12:09.050Z,15.85
2019-05-09T10:13:10.475Z,15.95
2019-05-09T10:14:07.872Z,16.06
2019-05-09T10:15:08.315Z,16.16
2019-05-09T10:16:09.718Z,16.25
2019-05-09T10:17:10.321Z,16.32
2019-05-09T10:18:07.502Z,16.40
2019-05-09T10:19:08.315Z,16.43
2019-05-09T10:20:06.229Z,16.42
2019-05-09T10:21:07.208Z,16.59
2019-05-09T10:22:08.291Z,16.77
2019-05-09T10:23:15.186Z,16.91
2019-05-09T10:24:08.057Z,17.13
2019-05-09T10:25:07.921Z,17.35
2019-05-09T10:26:08.478Z,17.45
2019-05-09T10:27:08.663Z,17.53
2019-05-09T10:28:08.539Z,17.47
2019-05-09T10:29:06.405Z,17.53
2019-05-09T10:30:06.005Z,17.37
2019-05-09T10:31:05.983Z,17.45
2019-05-09T10:32:05.952Z,17.52
2019-05-09T10:33:05.990Z,17.59
2019-05-09T10:34:05.987Z,17.81
2019-05-09T10:35:08.596Z,17.49
2019-05-09T10:36:08.260Z,17.47
2019-05-09T10:37:07.704Z,17.47
2019-05-09T10:38:08.704Z,17.50
2019-05-09T10:39:08.162Z,17.62
2019-05-09T10:40:06.552Z,17.86
2019-05-09T10:41:05.910Z,17.83
2019-05-09T10:42:07.836Z,17.54
2019-05-09T10:43:08.179Z,17.45
2019-05-09T10:44:08.136Z,17.75
2019-05-09T10:45:07.448Z,18.02
2019-05-09T10:46:08.145Z,18.01
2019-05-09T10:47:08.598Z,17.73
2019-05-09T10:48:08.179Z,17.75
2019-05-09T10:49:08.246Z,17.76
2019-05-09T10:50:08.234Z,17.78
2019-05-09T10:51:10.293Z,17.86
2019-05-09T10:52:05.782Z,17.78
2019-05-09T10:53:07.987Z,17.99
2019-05-09T10:54:07.901Z,18.13
2019-05-09T10:55:05.715Z,18.15
2019-05-09T10:56:08.592Z,18.33
2019-05-09T10:57:05.656Z,18.45
2019-05-09T10:58:08.091Z,18.34
2019-05-09T10:59:07.791Z,18.39
2019-05-09T11:00:08.476Z,18.43
2019-05-09T11:01:08.999Z,18.54
2019-05-09T11:02:09.206Z,18.74
2019-05-09T11:03:08.541Z,18.79
2019-05-09T11:04:07.924Z,18.74
2019-05-09T11:05:08.219Z,18.88
2019-05-09T11:06:08.340Z,18.97
2019-05-09T11:07:08.091Z,18.93
2019-05-09T11:08:08.061Z,18.85
2019-05-09T11:09:05.563Z,18.75
2019-05-09T11:10:24.030Z,18.66
2019-05-09T11:11:09.341Z,18.75
2019-05-09T11:12:07.803Z,18.97
2019-05-09T11:13:07.502Z,19.07
2019-05-09T11:14:05.467Z,19.22
2019-05-09T11:15:05.527Z,19.30
2019-05-09T11:16:07.550Z,19.30
2019-05-09T11:17:14.153Z,19.44
2019-05-09T11:18:08.185Z,19.45
2019-05-09T11:19:07.906Z,19.50
2019-05-09T11:20:08.442Z,19.70
2019-05-09T11:21:08.189Z,19.56
2019-05-09T11:22:07.831Z,19.59
2019-05-09T11:23:07.974Z,19.75
2019-05-09T11:24:08.120Z,19.67
2019-05-09T11:25:08.617Z,19.38
2019-05-09T11:26:05.335Z,19.07
2019-05-09T11:27:08.313Z,19.08
2019-05-09T11:28:10.400Z,19.09
2019-05-09T11:29:07.996Z,19.32
2019-05-09T11:30:05.322Z,19.59
2019-05-09T11:31:07.877Z,19.54
2019-05-09T11:32:10.937Z,19.38
2019-05-09T11:33:07.674Z,19.34
2019-05-09T11:34:05.268Z,19.47
2019-05-09T11:35:05.333Z,19.60
2019-05-09T11:36:05.215Z,19.57
2019-05-09T11:37:05.352Z,19.52
2019-05-09T11:38:08.163Z,19.54
2019-05-09T11:39:10.278Z,19.72
2019-05-09T11:40:06.194Z,19.53
2019-05-09T11:41:05.160Z,19.60
2019-05-09T11:42:05.238Z,19.75
2019-05-09T11:43:05.188Z,19.99
2019-05-09T11:44:08.222Z,19.89
2019-05-09T11:45:07.471Z,19.70
2019-05-09T11:46:05.214Z,19.34
2019-05-09T11:47:05.082Z,19.47
2019-05-09T11:48:07.959Z,19.54
2019-05-09T11:49:05.053Z,19.62
2019-05-09T11:50:05.120Z,19.77
2019-05-09T11:51:05.094Z,19.87
2019-05-09T11:52:05.037Z,19.77
2019-05-09T11:53:05.035Z,19.54
2019-05-09T11:54:05.054Z,19.27
2019-05-09T11:55:05.036Z,19.17
2019-05-09T11:56:05.033Z,19.27
2019-05-09T11:57:04.988Z,19.22
2019-05-09T11:58:04.988Z,19.08
2019-05-09T11:59:05.011Z,19.04
2019-05-09T12:00:05.004Z,19.05
2019-05-09T12:01:04.926Z,19.19
2019-05-09T12:02:04.915Z,19.44
2019-05-09T12:03:04.939Z,19.56
2019-05-09T12:04:04.910Z,19.77
2019-05-09T12:05:04.873Z,20.02
2019-05-09T12:06:04.935Z,20.12
2019-05-09T12:07:04.855Z,20.17
2019-05-09T12:08:04.857Z,20.17
2019-05-09T12:09:04.832Z,20.02
2019-05-09T12:10:07.296Z,19.71
2019-05-09T12:11:04.934Z,19.56
2019-05-09T12:12:04.840Z,19.50
2019-05-09T12:13:04.797Z,19.53
2019-05-09T12:14:04.777Z,19.53
2019-05-09T12:15:04.763Z,19.67
2019-05-09T12:16:04.816Z,19.67
2019-05-09T12:17:04.740Z,19.38
2019-05-09T12:18:10.662Z,19.49
2019-05-09T12:19:05.714Z,19.77
2019-05-09T12:20:10.542Z,19.90
2019-05-09T12:21:05.754Z,19.96
2019-05-09T12:22:04.687Z,19.86
2019-05-09T12:23:04.672Z,19.62
2019-05-09T12:24:04.749Z,19.57
2019-05-09T12:25:04.699Z,19.50
2019-05-09T12:26:04.786Z,19.57
2019-05-09T12:27:04.644Z,19.60
2019-05-09T12:28:04.645Z,19.49
2019-05-09T12:29:04.642Z,19.42
2019-05-09T12:30:04.610Z,19.16
2019-05-09T12:31:04.616Z,19.01
2019-05-09T12:32:04.621Z,18.98
2019-05-09T12:33:04.571Z,18.89
2019-05-09T12:34:04.654Z,18.88
2019-05-09T12:35:04.621Z,18.76
2019-05-09T12:36:04.537Z,18.64
2019-05-09T12:37:04.539Z,18.67
2019-05-09T12:38:04.555Z,18.70
2019-05-09T12:39:04.493Z,18.67
2019-05-09T12:40:04.495Z,18.52
2019-05-09T12:41:04.493Z,18.54
2019-05-09T12:42:04.500Z,18.52
2019-05-09T12:43:04.452Z,18.79
2019-05-09T12:44:04.518Z,19.01
2019-05-09T12:45:04.475Z,19.00
2019-05-09T12:46:04.446Z,19.01
2019-05-09T12:47:04.473Z,18.88
2019-05-09T12:48:13.900Z,18.94
2019-05-09T12:49:05.378Z,18.96
2019-05-09T12:50:04.381Z,19.01
2019-05-09T12:51:04.387Z,19.31
2019-05-09T12:52:04.408Z,19.49
2019-05-09T12:53:04.394Z,19.34
2019-05-09T12:54:04.327Z,19.19
2019-05-09T12:55:04.340Z,19.24
2019-05-09T12:56:04.310Z,19.26
2019-05-09T12:57:04.382Z,19.16
2019-05-09T12:58:04.385Z,19.04
2019-05-09T12:59:04.284Z,19.07
2019-05-09T13:00:04.497Z,19.15
2019-05-09T13:01:04.265Z,19.13
2019-05-09T13:02:04.297Z,19.23
2019-05-09T13:03:04.235Z,19.01